UAL61 YMML-KSFO
Flight info
| Callsign | UAL61 |
|---|---|
| Flight time | N/A |
| Altitude | 33000 |
| Route | DOSEL Y59 TESAT G595 SOTKI DCT UBLIN A579 VIRAR/N0489F350 A579 TANIL DCT NN B581 WOOBY/N0485F370 DCT 05N160W 10N156W 15N151W/N0477F390 20N146W 25N141W 29N135W 33N130W DCT CINNY PIRAT3 |
| Aircraft | B772/H-SDE2E3FGHIJ5LORVWXY/LB1D1 |
Departure
| Time | 2026-05-07 03:53 |
|---|---|
| Airport | Melbourne Airport (YMML) |
Arrival
| Time | N/A |
|---|---|
| Airport | San Francisco International Airport (KSFO) |
| Time | Latitude | Longitude | Altitude | Speed | Heading |
|---|---|---|---|---|---|
| 2026-05-07 03:21 | -37.66948 | 144.84419 | 396 ft | 0 kts | 330° |
| 2026-05-07 03:42 | -37.66958 | 144.84425 | 396 ft | 2 kts | 330° |
| 2026-05-07 03:43 | -37.66971 | 144.84435 | 396 ft | 2 kts | 330° |
| 2026-05-07 03:43 | -37.66984 | 144.84444 | 396 ft | 2 kts | 330° |
| 2026-05-07 03:43 | -37.66995 | 144.84453 | 396 ft | 0 kts | 330° |
| 2026-05-07 03:43 | -37.67005 | 144.84459 | 397 ft | 2 kts | 317° |
| 2026-05-07 03:44 | -37.67014 | 144.84474 | 397 ft | 2 kts | 292° |
| 2026-05-07 03:44 | -37.67017 | 144.84492 | 398 ft | 2 kts | 271° |
| 2026-05-07 03:44 | -37.67017 | 144.84503 | 398 ft | 0 kts | 257° |
| 2026-05-07 03:44 | -37.67016 | 144.84508 | 398 ft | 0 kts | 257° |
| 2026-05-07 03:47 | -37.67020 | 144.84492 | 398 ft | 3 kts | 245° |
| 2026-05-07 03:47 | -37.67038 | 144.84444 | 395 ft | 9 kts | 248° |
| 2026-05-07 03:47 | -37.67058 | 144.84345 | 391 ft | 14 kts | 266° |
| 2026-05-07 03:47 | -37.67013 | 144.84242 | 391 ft | 13 kts | 334° |
| 2026-05-07 03:48 | -37.66924 | 144.84215 | 393 ft | 12 kts | 349° |
| 2026-05-07 03:48 | -37.66836 | 144.84196 | 395 ft | 13 kts | 352° |
| 2026-05-07 03:48 | -37.66743 | 144.84180 | 397 ft | 13 kts | 352° |
| 2026-05-07 03:48 | -37.66641 | 144.84161 | 399 ft | 15 kts | 351° |
| 2026-05-07 03:49 | -37.66525 | 144.84140 | 404 ft | 18 kts | 351° |
| 2026-05-07 03:49 | -37.66394 | 144.84116 | 411 ft | 19 kts | 352° |
| 2026-05-07 03:49 | -37.66253 | 144.84090 | 418 ft | 21 kts | 352° |
| 2026-05-07 03:49 | -37.66098 | 144.84062 | 423 ft | 24 kts | 352° |
| 2026-05-07 03:50 | -37.65921 | 144.84029 | 426 ft | 26 kts | 351° |
| 2026-05-07 03:50 | -37.65747 | 144.83995 | 430 ft | 23 kts | 352° |
| 2026-05-07 03:50 | -37.65583 | 144.83966 | 432 ft | 24 kts | 350° |
| 2026-05-07 03:50 | -37.65416 | 144.83922 | 434 ft | 23 kts | 347° |
| 2026-05-07 03:51 | -37.65323 | 144.83859 | 437 ft | 12 kts | 303° |
| 2026-05-07 03:51 | -37.65305 | 144.83760 | 441 ft | 11 kts | 271° |
| 2026-05-07 03:51 | -37.65311 | 144.83661 | 445 ft | 12 kts | 261° |
| 2026-05-07 03:51 | -37.65347 | 144.83548 | 446 ft | 16 kts | 229° |
| 2026-05-07 03:52 | -37.65437 | 144.83517 | 445 ft | 13 kts | 175° |
| 2026-05-07 03:52 | -37.65652 | 144.83553 | 437 ft | 61 kts | 172° |
| 2026-05-07 03:52 | -37.66275 | 144.83670 | 421 ft | 119 kts | 171° |
| 2026-05-07 03:52 | -37.67279 | 144.83856 | 382 ft | 169 kts | 173° |
| 2026-05-07 03:53 | -37.68519 | 144.84053 | 669 ft | 183 kts | 175° |
| 2026-05-07 03:53 | -37.69778 | 144.84308 | 1314 ft | 184 kts | 175° |
| 2026-05-07 03:53 | -37.71020 | 144.84560 | 1882 ft | 183 kts | 176° |
| 2026-05-07 03:53 | -37.72342 | 144.84804 | 2022 ft | 200 kts | 176° |
| 2026-05-07 03:54 | -37.73775 | 144.84972 | 2135 ft | 214 kts | 189° |
| 2026-05-07 03:54 | -37.75185 | 144.84302 | 2203 ft | 227 kts | 219° |
| 2026-05-07 03:54 | -37.76144 | 144.82744 | 2638 ft | 231 kts | 247° |
| 2026-05-07 03:54 | -37.76320 | 144.80730 | 3243 ft | 233 kts | 275° |
| 2026-05-07 03:55 | -37.75959 | 144.78764 | 3824 ft | 231 kts | 278° |
| 2026-05-07 03:55 | -37.75546 | 144.76807 | 4325 ft | 232 kts | 279° |
| 2026-05-07 03:55 | -37.74973 | 144.74861 | 4604 ft | 247 kts | 298° |
| 2026-05-07 03:55 | -37.73744 | 144.73340 | 5008 ft | 260 kts | 324° |
| 2026-05-07 03:56 | -37.71961 | 144.72584 | 5221 ft | 280 kts | 353° |
| 2026-05-07 03:56 | -37.70005 | 144.72946 | 5545 ft | 292 kts | 19° |
| 2026-05-07 03:56 | -37.68132 | 144.73938 | 6000 ft | 293 kts | 22° |
| 2026-05-07 03:56 | -37.66242 | 144.74951 | 6425 ft | 296 kts | 20° |
| 2026-05-07 03:57 | -37.64310 | 144.75928 | 6817 ft | 300 kts | 20° |
| 2026-05-07 03:57 | -37.62386 | 144.76880 | 7247 ft | 302 kts | 20° |
| 2026-05-07 03:57 | -37.60418 | 144.77847 | 7615 ft | 306 kts | 20° |
| 2026-05-07 03:57 | -37.58411 | 144.78833 | 8022 ft | 309 kts | 20° |
| 2026-05-07 03:58 | -37.56435 | 144.79948 | 8385 ft | 313 kts | 32° |
| 2026-05-07 03:58 | -37.54647 | 144.81476 | 8758 ft | 315 kts | 38° |
| 2026-05-07 03:58 | -37.52873 | 144.83133 | 9175 ft | 317 kts | 39° |
| 2026-05-07 03:58 | -37.51091 | 144.84799 | 9531 ft | 322 kts | 39° |
| 2026-05-07 03:59 | -37.49292 | 144.86472 | 9886 ft | 325 kts | 39° |
| 2026-05-07 03:59 | -37.47451 | 144.88176 | 10168 ft | 333 kts | 39° |
| 2026-05-07 03:59 | -37.45520 | 144.89961 | 10183 ft | 350 kts | 39° |
| 2026-05-07 03:59 | -37.43638 | 144.91988 | 10198 ft | 362 kts | 51° |
| 2026-05-07 04:00 | -37.42080 | 144.94473 | 10206 ft | 374 kts | 59° |
| 2026-05-07 04:00 | -37.40541 | 144.97198 | 10220 ft | 389 kts | 59° |
| 2026-05-07 04:00 | -37.38941 | 145.00043 | 10350 ft | 401 kts | 59° |
| 2026-05-07 04:00 | -37.37334 | 145.02889 | 10810 ft | 402 kts | 59° |
| 2026-05-07 04:01 | -37.35713 | 145.05756 | 11300 ft | 403 kts | 59° |
| 2026-05-07 04:01 | -37.34098 | 145.08612 | 11694 ft | 407 kts | 59° |
| 2026-05-07 04:01 | -37.32432 | 145.11556 | 12054 ft | 412 kts | 60° |
| 2026-05-07 04:01 | -37.30788 | 145.14455 | 12459 ft | 416 kts | 60° |
| 2026-05-07 04:02 | -37.29091 | 145.17447 | 12906 ft | 420 kts | 60° |
| 2026-05-07 04:02 | -37.27389 | 145.20445 | 13332 ft | 424 kts | 61° |
| 2026-05-07 04:02 | -37.25679 | 145.23454 | 13803 ft | 426 kts | 62° |
| 2026-05-07 04:02 | -37.23950 | 145.26494 | 14243 ft | 430 kts | 62° |
| 2026-05-07 04:03 | -37.22215 | 145.29540 | 14734 ft | 433 kts | 62° |
| 2026-05-07 04:03 | -37.20450 | 145.32637 | 15215 ft | 436 kts | 62° |
| 2026-05-07 04:03 | -37.18695 | 145.35713 | 15670 ft | 440 kts | 62° |
| 2026-05-07 04:03 | -37.16908 | 145.38844 | 16127 ft | 443 kts | 62° |
| 2026-05-07 04:04 | -37.15109 | 145.41989 | 16629 ft | 446 kts | 62° |
| 2026-05-07 04:04 | -37.13294 | 145.45158 | 17081 ft | 449 kts | 62° |
| 2026-05-07 04:04 | -37.11469 | 145.48341 | 17470 ft | 453 kts | 63° |
| 2026-05-07 04:04 | -37.09637 | 145.51532 | 17936 ft | 455 kts | 63° |
| 2026-05-07 04:05 | -37.07784 | 145.54758 | 18386 ft | 458 kts | 63° |
| 2026-05-07 04:05 | -37.05908 | 145.58020 | 18789 ft | 462 kts | 63° |
| 2026-05-07 04:05 | -37.04028 | 145.61289 | 19166 ft | 466 kts | 63° |
| 2026-05-07 04:05 | -37.02137 | 145.64569 | 19601 ft | 468 kts | 63° |
| 2026-05-07 04:06 | -37.00247 | 145.67845 | 20017 ft | 471 kts | 62° |
| 2026-05-07 04:06 | -36.98329 | 145.71168 | 20393 ft | 475 kts | 62° |
| 2026-05-07 04:06 | -36.96384 | 145.74535 | 20821 ft | 477 kts | 62° |
| 2026-05-07 04:06 | -36.94434 | 145.77905 | 21184 ft | 480 kts | 62° |
| 2026-05-07 04:07 | -36.92492 | 145.81259 | 21559 ft | 482 kts | 62° |
| 2026-05-07 04:07 | -36.90532 | 145.84641 | 21925 ft | 485 kts | 62° |
| 2026-05-07 04:07 | -36.88546 | 145.88063 | 22250 ft | 489 kts | 62° |
| 2026-05-07 04:07 | -36.86533 | 145.91530 | 22535 ft | 493 kts | 62° |
| 2026-05-07 04:08 | -36.84531 | 145.94974 | 22823 ft | 496 kts | 62° |
| 2026-05-07 04:08 | -36.82484 | 145.98492 | 23086 ft | 500 kts | 62° |
| 2026-05-07 04:08 | -36.80450 | 146.01982 | 23425 ft | 502 kts | 62° |
| 2026-05-07 04:08 | -36.78401 | 146.05496 | 23708 ft | 505 kts | 62° |
| 2026-05-07 04:09 | -36.76311 | 146.09076 | 23994 ft | 508 kts | 62° |
| 2026-05-07 04:09 | -36.74262 | 146.12579 | 24397 ft | 508 kts | 62° |
| 2026-05-07 04:09 | -36.72181 | 146.16136 | 24718 ft | 510 kts | 62° |
| 2026-05-07 04:09 | -36.70091 | 146.19705 | 24970 ft | 513 kts | 62° |
| 2026-05-07 04:10 | -36.67975 | 146.23315 | 25291 ft | 515 kts | 62° |
| 2026-05-07 04:10 | -36.65870 | 146.26903 | 25598 ft | 517 kts | 62° |
| 2026-05-07 04:10 | -36.63751 | 146.30508 | 25924 ft | 518 kts | 62° |
| 2026-05-07 04:10 | -36.61609 | 146.34149 | 26249 ft | 520 kts | 62° |
| 2026-05-07 04:11 | -36.59476 | 146.37772 | 26539 ft | 521 kts | 62° |
| 2026-05-07 04:11 | -36.57328 | 146.41419 | 26784 ft | 524 kts | 62° |
| 2026-05-07 04:11 | -36.55156 | 146.45099 | 27053 ft | 527 kts | 62° |
| 2026-05-07 04:11 | -36.52978 | 146.48785 | 27316 ft | 529 kts | 63° |
| 2026-05-07 04:12 | -36.50809 | 146.52454 | 27671 ft | 529 kts | 62° |
| 2026-05-07 04:12 | -36.48634 | 146.56125 | 27994 ft | 529 kts | 62° |
| 2026-05-07 04:12 | -36.46446 | 146.59819 | 28277 ft | 531 kts | 62° |
| 2026-05-07 04:12 | -36.44250 | 146.63521 | 28429 ft | 535 kts | 63° |
| 2026-05-07 04:13 | -36.42039 | 146.67247 | 28696 ft | 537 kts | 61° |
| 2026-05-07 04:13 | -36.39824 | 146.70972 | 28837 ft | 541 kts | 62° |
| 2026-05-07 04:13 | -36.37580 | 146.74742 | 29073 ft | 542 kts | 61° |
| 2026-05-07 04:13 | -36.35361 | 146.78467 | 29373 ft | 543 kts | 61° |
| 2026-05-07 04:14 | -36.33128 | 146.82208 | 29633 ft | 544 kts | 61° |
| 2026-05-07 04:14 | -36.30881 | 146.85971 | 29896 ft | 545 kts | 62° |
| 2026-05-07 04:14 | -36.28605 | 146.89777 | 30265 ft | 544 kts | 62° |
| 2026-05-07 04:14 | -36.26365 | 146.93518 | 30543 ft | 544 kts | 62° |
| 2026-05-07 04:15 | -36.24124 | 146.97260 | 30688 ft | 546 kts | 62° |
| 2026-05-07 04:15 | -36.21864 | 147.01028 | 30952 ft | 546 kts | 62° |
| 2026-05-07 04:15 | -36.19609 | 147.04782 | 31189 ft | 546 kts | 60° |
| 2026-05-07 04:15 | -36.17329 | 147.08574 | 31440 ft | 545 kts | 61° |
| 2026-05-07 04:16 | -36.15086 | 147.12300 | 31737 ft | 543 kts | 60° |
| 2026-05-07 04:16 | -36.12835 | 147.16034 | 32004 ft | 541 kts | 60° |
| 2026-05-07 04:16 | -36.10587 | 147.19762 | 32190 ft | 542 kts | 59° |
| 2026-05-07 04:16 | -36.08347 | 147.23473 | 32401 ft | 543 kts | 59° |
| 2026-05-07 04:17 | -36.06085 | 147.27214 | 32558 ft | 543 kts | 59° |
| 2026-05-07 04:17 | -36.03824 | 147.30951 | 32759 ft | 543 kts | 59° |
| 2026-05-07 04:17 | -36.01566 | 147.34679 | 33051 ft | 541 kts | 59° |
| 2026-05-07 04:18 | -35.97069 | 147.42088 | 33152 ft | 542 kts | 59° |
| 2026-05-07 04:18 | -35.92581 | 147.49469 | 33143 ft | 539 kts | 58° |
| 2026-05-07 04:19 | -35.88066 | 147.56880 | 33106 ft | 541 kts | 58° |
| 2026-05-07 04:19 | -35.83555 | 147.64269 | 33119 ft | 543 kts | 57° |
| 2026-05-07 04:20 | -35.78994 | 147.71721 | 33087 ft | 544 kts | 57° |
| 2026-05-07 04:20 | -35.74454 | 147.79121 | 33097 ft | 542 kts | 57° |
| 2026-05-07 04:21 | -35.67649 | 147.90189 | 33096 ft | 543 kts | 57° |
| 2026-05-07 04:21 | -35.63096 | 147.97572 | 33111 ft | 546 kts | 56° |
| 2026-05-07 04:22 | -35.58504 | 148.05003 | 33111 ft | 544 kts | 56° |
| 2026-05-07 04:22 | -35.53951 | 148.12355 | 33116 ft | 542 kts | 56° |
| 2026-05-07 04:23 | -35.49407 | 148.19679 | 33116 ft | 544 kts | 56° |
| 2026-05-07 04:23 | -35.44833 | 148.27034 | 33104 ft | 543 kts | 57° |
| 2026-05-07 04:24 | -35.40236 | 148.34412 | 33055 ft | 543 kts | 55° |
| 2026-05-07 04:24 | -35.35648 | 148.41757 | 33076 ft | 546 kts | 55° |
| 2026-05-07 04:25 | -35.31054 | 148.49097 | 33066 ft | 545 kts | 56° |
| 2026-05-07 04:25 | -35.26438 | 148.56457 | 33048 ft | 547 kts | 54° |
| 2026-05-07 04:26 | -35.21812 | 148.63817 | 33054 ft | 545 kts | 54° |
| 2026-05-07 04:26 | -35.17189 | 148.71158 | 33044 ft | 545 kts | 54° |
| 2026-05-07 04:27 | -35.12588 | 148.78448 | 33047 ft | 545 kts | 53° |
| 2026-05-07 04:27 | -35.07980 | 148.85733 | 33056 ft | 545 kts | 53° |
| 2026-05-07 04:28 | -35.03347 | 148.93043 | 33030 ft | 543 kts | 53° |
| 2026-05-07 04:28 | -34.98761 | 149.00264 | 33057 ft | 540 kts | 53° |
| 2026-05-07 04:29 | -34.94141 | 149.07524 | 33057 ft | 541 kts | 52° |
| 2026-05-07 04:29 | -34.89530 | 149.14755 | 33062 ft | 543 kts | 52° |
| 2026-05-07 04:30 | -34.84901 | 149.21999 | 33051 ft | 545 kts | 52° |
| 2026-05-07 04:30 | -34.80225 | 149.29303 | 33050 ft | 545 kts | 51° |
| 2026-05-07 04:31 | -34.75595 | 149.36519 | 33048 ft | 544 kts | 51° |
| 2026-05-07 04:31 | -34.71632 | 149.44342 | 33038 ft | 546 kts | 62° |
| 2026-05-07 04:32 | -34.68097 | 149.52486 | 33033 ft | 546 kts | 61° |
| 2026-05-07 04:32 | -34.64560 | 149.60608 | 33037 ft | 546 kts | 60° |
| 2026-05-07 04:33 | -34.60977 | 149.68803 | 33023 ft | 547 kts | 60° |
| 2026-05-07 04:33 | -34.57418 | 149.76916 | 33006 ft | 546 kts | 60° |
| 2026-05-07 04:34 | -34.53855 | 149.85019 | 33004 ft | 547 kts | 59° |
| 2026-05-07 04:34 | -34.50305 | 149.93068 | 33007 ft | 543 kts | 59° |
| 2026-05-07 04:35 | -34.46713 | 150.01192 | 33002 ft | 545 kts | 58° |
| 2026-05-07 04:35 | -34.43153 | 150.09222 | 33015 ft | 547 kts | 59° |
| 2026-05-07 04:36 | -34.39532 | 150.17371 | 33008 ft | 547 kts | 58° |
| 2026-05-07 04:36 | -34.35951 | 150.25412 | 33015 ft | 548 kts | 58° |
| 2026-05-07 04:37 | -34.32331 | 150.33522 | 33003 ft | 546 kts | 58° |
| 2026-05-07 04:37 | -34.28717 | 150.41597 | 33026 ft | 546 kts | 58° |
| 2026-05-07 04:38 | -34.25113 | 150.49690 | 33018 ft | 552 kts | 58° |
| 2026-05-07 04:38 | -34.21503 | 150.57823 | 33026 ft | 548 kts | 58° |
| 2026-05-07 04:39 | -34.17903 | 150.65906 | 33018 ft | 550 kts | 57° |
| 2026-05-07 04:39 | -34.14275 | 150.74036 | 33006 ft | 547 kts | 57° |
| 2026-05-07 04:40 | -34.10663 | 150.82106 | 33005 ft | 548 kts | 57° |
| 2026-05-07 04:40 | -34.07068 | 150.90122 | 33014 ft | 547 kts | 56° |
| 2026-05-07 04:41 | -34.03425 | 150.98224 | 33004 ft | 549 kts | 56° |
| 2026-05-07 04:41 | -33.99801 | 151.06265 | 33031 ft | 546 kts | 56° |
| 2026-05-07 04:42 | -33.96256 | 151.14439 | 33007 ft | 551 kts | 62° |
| 2026-05-07 04:42 | -33.94238 | 151.23389 | 33018 ft | 564 kts | 81° |
| 2026-05-07 04:43 | -33.93755 | 151.32848 | 33033 ft | 568 kts | 85° |
| 2026-05-07 04:43 | -33.93401 | 151.42294 | 33039 ft | 570 kts | 85° |
| 2026-05-07 04:44 | -33.93028 | 151.51800 | 33014 ft | 568 kts | 84° |
| 2026-05-07 04:44 | -33.92643 | 151.61289 | 33025 ft | 571 kts | 84° |
| 2026-05-07 04:45 | -33.92247 | 151.70778 | 32975 ft | 571 kts | 83° |
| 2026-05-07 04:45 | -33.91840 | 151.80304 | 32997 ft | 570 kts | 83° |
| 2026-05-07 04:46 | -33.91423 | 151.89836 | 32978 ft | 572 kts | 83° |
| 2026-05-07 04:46 | -33.91000 | 151.99376 | 32973 ft | 571 kts | 82° |
| 2026-05-07 04:47 | -33.90575 | 152.08890 | 32964 ft | 575 kts | 84° |
| 2026-05-07 04:47 | -33.90626 | 152.18471 | 32964 ft | 574 kts | 87° |
| 2026-05-07 04:48 | -33.90739 | 152.28069 | 32958 ft | 575 kts | 87° |
| 2026-05-07 04:48 | -33.90826 | 152.37672 | 32970 ft | 574 kts | 86° |
| 2026-05-07 04:49 | -33.90892 | 152.47250 | 32949 ft | 576 kts | 87° |
| 2026-05-07 04:49 | -33.90946 | 152.56831 | 32967 ft | 574 kts | 86° |
| 2026-05-07 04:50 | -33.90988 | 152.66444 | 32947 ft | 574 kts | 85° |
| 2026-05-07 04:50 | -33.91021 | 152.75984 | 32939 ft | 572 kts | 85° |
| 2026-05-07 04:51 | -33.91045 | 152.85529 | 32930 ft | 571 kts | 85° |
| 2026-05-07 04:51 | -33.91060 | 152.95033 | 32938 ft | 572 kts | 85° |
| 2026-05-07 04:52 | -33.91069 | 153.04590 | 32927 ft | 571 kts | 85° |
| 2026-05-07 04:52 | -33.91068 | 153.14146 | 32931 ft | 575 kts | 84° |
| 2026-05-07 04:53 | -33.91061 | 153.23703 | 32935 ft | 574 kts | 84° |
| 2026-05-07 04:53 | -33.91047 | 153.33284 | 32941 ft | 574 kts | 84° |
| 2026-05-07 04:54 | -33.91023 | 153.42866 | 32949 ft | 577 kts | 84° |
| 2026-05-07 04:54 | -33.90995 | 153.52435 | 32945 ft | 572 kts | 84° |
| 2026-05-07 04:55 | -33.90957 | 153.61986 | 32943 ft | 575 kts | 84° |
| 2026-05-07 04:55 | -33.90913 | 153.71564 | 32905 ft | 573 kts | 84° |
| 2026-05-07 04:56 | -33.90860 | 153.81169 | 32917 ft | 575 kts | 83° |
| 2026-05-07 04:56 | -33.90801 | 153.90712 | 32876 ft | 576 kts | 83° |
| 2026-05-07 04:57 | -33.90732 | 154.00412 | 32891 ft | 577 kts | 83° |
| 2026-05-07 04:57 | -33.90659 | 154.09964 | 32889 ft | 575 kts | 83° |
| 2026-05-07 04:58 | -33.90577 | 154.19580 | 32891 ft | 575 kts | 83° |
| 2026-05-07 04:58 | -33.90488 | 154.29153 | 32890 ft | 575 kts | 83° |
| 2026-05-07 04:59 | -33.90392 | 154.38701 | 32880 ft | 572 kts | 82° |
| 2026-05-07 04:59 | -33.90286 | 154.48291 | 32889 ft | 573 kts | 83° |
| 2026-05-07 05:00 | -33.89666 | 154.57761 | 32901 ft | 570 kts | 77° |
| 2026-05-07 05:00 | -33.88877 | 154.67188 | 32883 ft | 565 kts | 76° |
| 2026-05-07 05:01 | -33.88086 | 154.76558 | 32875 ft | 564 kts | 76° |
| 2026-05-07 05:01 | -33.87291 | 154.85906 | 32884 ft | 564 kts | 76° |
| 2026-05-07 05:02 | -33.86495 | 154.95198 | 32890 ft | 561 kts | 76° |
| 2026-05-07 05:02 | -33.85686 | 155.04553 | 32887 ft | 564 kts | 76° |
| 2026-05-07 05:03 | -33.84462 | 155.13724 | 32880 ft | 551 kts | 64° |
| 2026-05-07 05:03 | -33.83181 | 155.18002 | 32873 ft | 540 kts | 56° |
| 2026-05-07 05:03 | -33.81486 | 155.21896 | 32875 ft | 523 kts | 47° |
| 2026-05-07 05:04 | -33.79402 | 155.25452 | 32877 ft | 510 kts | 40° |
| 2026-05-07 05:04 | -33.77190 | 155.28761 | 32870 ft | 511 kts | 39° |
| 2026-05-07 05:04 | -33.72709 | 155.35336 | 32868 ft | 507 kts | 39° |
| 2026-05-07 05:05 | -33.68239 | 155.41820 | 32865 ft | 508 kts | 39° |
| 2026-05-07 05:05 | -33.63721 | 155.48334 | 32880 ft | 505 kts | 39° |
| 2026-05-07 05:06 | -33.59199 | 155.54822 | 32868 ft | 510 kts | 39° |
| 2026-05-07 05:06 | -33.54655 | 155.61328 | 32877 ft | 507 kts | 39° |
| 2026-05-07 05:07 | -33.50116 | 155.67802 | 32849 ft | 510 kts | 39° |
| 2026-05-07 05:07 | -33.45569 | 155.74281 | 32855 ft | 507 kts | 39° |
| 2026-05-07 05:08 | -33.41038 | 155.80721 | 32862 ft | 506 kts | 39° |
| 2026-05-07 05:08 | -33.36524 | 155.87125 | 32865 ft | 507 kts | 39° |
| 2026-05-07 05:09 | -33.31966 | 155.93576 | 32865 ft | 506 kts | 39° |
| 2026-05-07 05:09 | -33.27438 | 155.99977 | 32863 ft | 507 kts | 39° |
| 2026-05-07 05:10 | -33.22919 | 156.06354 | 32864 ft | 506 kts | 39° |
| 2026-05-07 05:10 | -33.18364 | 156.12769 | 32857 ft | 505 kts | 39° |
| 2026-05-07 05:11 | -33.13857 | 156.19106 | 32857 ft | 504 kts | 40° |
| 2026-05-07 05:11 | -33.09307 | 156.25488 | 32863 ft | 504 kts | 40° |
| 2026-05-07 05:12 | -33.04761 | 156.31857 | 32867 ft | 506 kts | 40° |
| 2026-05-07 05:12 | -33.00220 | 156.38209 | 32870 ft | 502 kts | 40° |
| 2026-05-07 05:13 | -32.95710 | 156.44504 | 32880 ft | 504 kts | 40° |
| 2026-05-07 05:13 | -32.91147 | 156.50862 | 32869 ft | 506 kts | 40° |
| 2026-05-07 05:14 | -32.86563 | 156.57239 | 32885 ft | 506 kts | 40° |
| 2026-05-07 05:14 | -32.81982 | 156.63603 | 32893 ft | 507 kts | 40° |
| 2026-05-07 05:15 | -32.77412 | 156.69940 | 32860 ft | 505 kts | 39° |
| 2026-05-07 05:15 | -32.72842 | 156.76263 | 32879 ft | 506 kts | 39° |
| 2026-05-07 05:16 | -32.68281 | 156.82567 | 32874 ft | 506 kts | 39° |
| 2026-05-07 05:16 | -32.63676 | 156.88917 | 32878 ft | 509 kts | 39° |
| 2026-05-07 05:17 | -32.59061 | 156.95271 | 32881 ft | 509 kts | 40° |
| 2026-05-07 05:17 | -32.54451 | 157.01607 | 32861 ft | 512 kts | 40° |
| 2026-05-07 05:18 | -32.49801 | 157.07989 | 32875 ft | 510 kts | 39° |
| 2026-05-07 05:18 | -32.45181 | 157.14320 | 32874 ft | 510 kts | 39° |
| 2026-05-07 05:19 | -32.40522 | 157.20689 | 32865 ft | 513 kts | 39° |
| 2026-05-07 05:19 | -32.35880 | 157.27026 | 32874 ft | 513 kts | 39° |
| 2026-05-07 05:20 | -32.31193 | 157.33415 | 32878 ft | 511 kts | 39° |
| 2026-05-07 05:20 | -32.26546 | 157.39737 | 32887 ft | 514 kts | 39° |
| 2026-05-07 05:21 | -32.19525 | 157.49268 | 32893 ft | 514 kts | 39° |
| 2026-05-07 05:22 | -32.14853 | 157.55595 | 32903 ft | 516 kts | 39° |
| 2026-05-07 05:22 | -32.10130 | 157.61983 | 32902 ft | 517 kts | 39° |
| 2026-05-07 05:23 | -32.05413 | 157.68350 | 32879 ft | 517 kts | 39° |
| 2026-05-07 05:23 | -32.00678 | 157.74734 | 32883 ft | 518 kts | 38° |
| 2026-05-07 05:24 | -31.95926 | 157.81128 | 32881 ft | 517 kts | 38° |
| 2026-05-07 05:24 | -31.91195 | 157.87483 | 32883 ft | 517 kts | 38° |
| 2026-05-07 05:25 | -31.86453 | 157.93842 | 32887 ft | 518 kts | 38° |
| 2026-05-07 05:25 | -31.81711 | 158.00185 | 32896 ft | 523 kts | 38° |
| 2026-05-07 05:26 | -31.76911 | 158.06604 | 32899 ft | 519 kts | 38° |
| 2026-05-07 05:26 | -31.72163 | 158.12938 | 32894 ft | 520 kts | 38° |
| 2026-05-07 05:27 | -31.67365 | 158.19328 | 32902 ft | 520 kts | 38° |
| 2026-05-07 05:27 | -31.62566 | 158.25705 | 32904 ft | 524 kts | 38° |
| 2026-05-07 05:28 | -31.57775 | 158.32066 | 32908 ft | 523 kts | 38° |
| 2026-05-07 05:28 | -31.52970 | 158.38434 | 32910 ft | 523 kts | 38° |
| 2026-05-07 05:29 | -31.48146 | 158.44817 | 32922 ft | 523 kts | 38° |
| 2026-05-07 05:29 | -31.43326 | 158.51181 | 32932 ft | 523 kts | 38° |
| 2026-05-07 05:30 | -31.38523 | 158.57516 | 32933 ft | 520 kts | 38° |
| 2026-05-07 05:30 | -31.33680 | 158.63886 | 32945 ft | 526 kts | 38° |
| 2026-05-07 05:31 | -31.28874 | 158.70206 | 32920 ft | 520 kts | 37° |
| 2026-05-07 05:31 | -31.24029 | 158.76558 | 32927 ft | 525 kts | 37° |
| 2026-05-07 05:32 | -31.19214 | 158.82866 | 32930 ft | 522 kts | 37° |
| 2026-05-07 05:32 | -31.14411 | 158.89148 | 32933 ft | 520 kts | 37° |
| 2026-05-07 05:33 | -31.09557 | 158.95479 | 32939 ft | 522 kts | 37° |
| 2026-05-07 05:33 | -31.04717 | 159.01787 | 32944 ft | 523 kts | 37° |
| 2026-05-07 05:34 | -30.99891 | 159.08067 | 32939 ft | 522 kts | 37° |
| 2026-05-07 05:34 | -30.95058 | 159.14343 | 32933 ft | 523 kts | 37° |
| 2026-05-07 05:35 | -30.90195 | 159.20648 | 32931 ft | 524 kts | 37° |
| 2026-05-07 05:35 | -30.85347 | 159.26923 | 32948 ft | 527 kts | 37° |
| 2026-05-07 05:36 | -30.80468 | 159.33231 | 32952 ft | 525 kts | 37° |
| 2026-05-07 05:36 | -30.75574 | 159.39546 | 32949 ft | 525 kts | 37° |
| 2026-05-07 05:37 | -30.70709 | 159.45813 | 32950 ft | 526 kts | 37° |
| 2026-05-07 05:37 | -30.65797 | 159.52132 | 32951 ft | 525 kts | 37° |
| 2026-05-07 05:38 | -30.60896 | 159.58424 | 32958 ft | 526 kts | 37° |
| 2026-05-07 05:38 | -30.55992 | 159.64710 | 32956 ft | 528 kts | 37° |
| 2026-05-07 05:39 | -30.51098 | 159.70979 | 32933 ft | 523 kts | 37° |
| 2026-05-07 05:39 | -30.46181 | 159.77257 | 32943 ft | 526 kts | 37° |
| 2026-05-07 05:40 | -30.41281 | 159.83511 | 32940 ft | 523 kts | 37° |
| 2026-05-07 05:40 | -30.36371 | 159.89761 | 32941 ft | 528 kts | 37° |
| 2026-05-07 05:41 | -30.31446 | 159.96025 | 32946 ft | 527 kts | 37° |
| 2026-05-07 05:41 | -30.26518 | 160.02283 | 32949 ft | 526 kts | 37° |
| 2026-05-07 05:42 | -30.21598 | 160.08517 | 32946 ft | 529 kts | 37° |
| 2026-05-07 05:42 | -30.16617 | 160.14821 | 32949 ft | 528 kts | 37° |
| 2026-05-07 05:43 | -30.11706 | 160.21028 | 32950 ft | 528 kts | 37° |
| 2026-05-07 05:43 | -30.06733 | 160.27296 | 32948 ft | 530 kts | 37° |
| 2026-05-07 05:44 | -30.01744 | 160.33581 | 32952 ft | 530 kts | 37° |
| 2026-05-07 05:44 | -29.96793 | 160.39809 | 32954 ft | 531 kts | 37° |
| 2026-05-07 05:45 | -29.91797 | 160.46083 | 32953 ft | 529 kts | 38° |
| 2026-05-07 05:45 | -29.86796 | 160.52345 | 32968 ft | 533 kts | 38° |